sensor_id;sensor_type;location;lat;lon;timestamp;pressure;altitude;pressure_sealevel;temperature;humidity
22389;BME280;11362;48.102;11.620;2023-06-10T00:01:12;94861.56;;;24.97;40.63
22389;BME280;11362;48.102;11.620;2023-06-10T00:03:37;94854.44;;;24.96;40.78
22389;BME280;11362;48.102;11.620;2023-06-10T00:06:02;94861.22;;;24.95;40.61
22389;BME280;11362;48.102;11.620;2023-06-10T00:08:28;94858.44;;;24.95;40.82
22389;BME280;11362;48.102;11.620;2023-06-10T00:10:53;94848.09;;;24.96;40.56
22389;BME280;11362;48.102;11.620;2023-06-10T00:13:18;94858.44;;;24.95;40.53
22389;BME280;11362;48.102;11.620;2023-06-10T00:15:43;94849.75;;;24.93;40.85
22389;BME280;11362;48.102;11.620;2023-06-10T00:18:09;94855.66;;;24.95;40.85
22389;BME280;11362;48.102;11.620;2023-06-10T00:20:34;94859.66;;;24.94;40.72
22389;BME280;11362;48.102;11.620;2023-06-10T00:23:00;94862.44;;;24.94;40.72
22389;BME280;11362;48.102;11.620;2023-06-10T00:25:26;94852.88;;;24.95;40.65
22389;BME280;11362;48.102;11.620;2023-06-10T00:27:51;94855.66;;;24.95;40.54
22389;BME280;11362;48.102;11.620;2023-06-10T00:30:16;94848.09;;;24.96;40.67
22389;BME280;11362;48.102;11.620;2023-06-10T00:32:42;94853.66;;;24.96;40.56
22389;BME280;11362;48.102;11.620;2023-06-10T00:35:07;94853.66;;;24.96;40.74
22389;BME280;11362;48.102;11.620;2023-06-10T00:37:33;94850.88;;;24.96;40.58
22389;BME280;11362;48.102;11.620;2023-06-10T00:39:58;94856.41;;;24.96;40.74
22389;BME280;11362;48.102;11.620;2023-06-10T00:42:23;94860.00;;;24.96;40.58
22389;BME280;11362;48.102;11.620;2023-06-10T00:44:49;94864.75;;;24.96;40.69
22389;BME280;11362;48.102;11.620;2023-06-10T00:47:15;94864.00;;;24.95;40.86
22389;BME280;11362;48.102;11.620;2023-06-10T00:49:40;94858.44;;;24.95;40.67
22389;BME280;11362;48.102;11.620;2023-06-10T00:52:06;94860.00;;;24.96;40.81
22389;BME280;11362;48.102;11.620;2023-06-10T00:54:32;94848.53;;;24.94;40.59
22389;BME280;11362;48.102;11.620;2023-06-10T00:57:00;94856.09;;;24.94;40.71
22389;BME280;11362;48.102;11.620;2023-06-10T00:59:27;94864.00;;;24.95;40.67
22389;BME280;11362;48.102;11.620;2023-06-10T01:01:53;94858.44;;;24.95;40.21
22389;BME280;11362;48.102;11.620;2023-06-10T01:04:19;94870.78;;;24.94;40.76
22389;BME280;11362;48.102;11.620;2023-06-10T01:12:31;94867.63;;;24.92;40.63
22389;BME280;11362;48.102;11.620;2023-06-10T01:14:59;94870.41;;;24.92;40.70
22389;BME280;11362;48.102;11.620;2023-06-10T01:17:25;94869.22;;;24.93;40.77
22389;BME280;11362;48.102;11.620;2023-06-10T01:19:55;94865.31;;;24.91;40.84
22389;BME280;11362;48.102;11.620;2023-06-10T01:22:21;94865.31;;;24.91;40.80
22389;BME280;11362;48.102;11.620;2023-06-10T01:24:47;94866.06;;;24.91;40.58
22389;BME280;11362;48.102;11.620;2023-06-10T01:27:13;94868.84;;;24.91;40.69
22389;BME280;11362;48.102;11.620;2023-06-10T01:29:45;94859.75;;;24.91;40.93
22389;BME280;11362;48.102;11.620;2023-06-10T01:32:18;94861.72;;;24.90;40.65
22389;BME280;11362;48.102;11.620;2023-06-10T01:34:47;94871.63;;;24.91;40.68
22389;BME280;11362;48.102;11.620;2023-06-10T01:37:13;94867.28;;;24.90;40.85
22389;BME280;11362;48.102;11.620;2023-06-10T01:39:41;94876.41;;;24.91;40.76
22389;BME280;11362;48.102;11.620;2023-06-10T01:42:10;94872.84;;;24.90;40.69
22389;BME280;11362;48.102;11.620;2023-06-10T01:44:35;94870.06;;;24.90;40.68
22389;BME280;11362;48.102;11.620;2023-06-10T01:47:01;94865.72;;;24.89;40.89
22389;BME280;11362;48.102;11.620;2023-06-10T01:49:26;94864.50;;;24.90;40.92
22389;BME280;11362;48.102;11.620;2023-06-10T01:51:51;94872.09;;;24.90;40.65
22389;BME280;11362;48.102;11.620;2023-06-10T01:54:16;94869.31;;;24.90;40.64
22389;BME280;11362;48.102;11.620;2023-06-10T01:56:42;94876.84;;;24.89;40.60
22389;BME280;11362;48.102;11.620;2023-06-10T01:59:07;94877.63;;;24.90;40.67
22389;BME280;11362;48.102;11.620;2023-06-10T02:01:33;94882.41;;;24.89;40.91
22389;BME280;11362;48.102;11.620;2023-06-10T02:03:58;94884.75;;;24.91;40.75
22389;BME280;11362;48.102;11.620;2023-06-10T02:06:24;94877.63;;;24.90;40.48
22389;BME280;11362;48.102;11.620;2023-06-10T02:08:49;94884.75;;;24.91;40.93
22389;BME280;11362;48.102;11.620;2023-06-10T02:11:14;94881.19;;;24.90;40.75
22389;BME280;11362;48.102;11.620;2023-06-10T02:13:39;94879.63;;;24.89;40.93
22389;BME280;11362;48.102;11.620;2023-06-10T02:16:05;94876.84;;;24.89;40.82
22389;BME280;11362;48.102;11.620;2023-06-10T02:18:30;94876.09;;;24.89;40.54
22389;BME280;11362;48.102;11.620;2023-06-10T02:20:55;94870.53;;;24.89;40.89
22389;BME280;11362;48.102;11.620;2023-06-10T02:23:20;94877.28;;;24.88;40.77
22389;BME280;11362;48.102;11.620;2023-06-10T02:25:46;94870.94;;;24.87;40.82
22389;BME280;11362;48.102;11.620;2023-06-10T02:28:11;94871.72;;;24.88;40.85
22389;BME280;11362;48.102;11.620;2023-06-10T02:30:39;94865.41;;;24.87;40.79
22389;BME280;11362;48.102;11.620;2023-06-10T02:33:04;94866.94;;;24.88;40.66
22389;BME280;11362;48.102;11.620;2023-06-10T02:35:30;94872.50;;;24.88;40.70
22389;BME280;11362;48.102;11.620;2023-06-10T02:37:55;94878.84;;;24.89;40.71
22389;BME280;11362;48.102;11.620;2023-06-10T02:40:20;94868.94;;;24.88;40.66
22389;BME280;11362;48.102;11.620;2023-06-10T02:42:46;94880.84;;;24.88;40.56
22389;BME280;11362;48.102;11.620;2023-06-10T02:45:11;94872.16;;;24.86;40.65
22389;BME280;11362;48.102;11.620;2023-06-10T02:47:37;94878.06;;;24.88;40.58
22389;BME280;11362;48.102;11.620;2023-06-10T02:50:03;94873.72;;;24.87;40.75
22389;BME280;11362;48.102;11.620;2023-06-10T02:52:28;94868.16;;;24.87;40.88
22389;BME280;11362;48.102;11.620;2023-06-10T02:54:53;94868.16;;;24.87;40.50
22389;BME280;11362;48.102;11.620;2023-06-10T02:57:19;94868.94;;;24.88;40.59
22389;BME280;11362;48.102;11.620;2023-06-10T02:59:44;94869.72;;;24.88;40.60
22389;BME280;11362;48.102;11.620;2023-06-10T03:02:09;94866.63;;;24.86;40.67
22389;BME280;11362;48.102;11.620;2023-06-10T03:04:34;94872.94;;;24.87;40.79
22389;BME280;11362;48.102;11.620;2023-06-10T03:07:00;94871.72;;;24.88;40.83
22389;BME280;11362;48.102;11.620;2023-06-10T03:09:25;94868.59;;;24.86;40.94
22389;BME280;11362;48.102;11.620;2023-06-10T03:11:51;94872.16;;;24.86;40.78
22389;BME280;11362;48.102;11.620;2023-06-10T03:14:16;94876.16;;;24.85;40.84
22389;BME280;11362;48.102;11.620;2023-06-10T03:16:41;94882.91;;;24.84;40.80
22389;BME280;11362;48.102;11.620;2023-06-10T03:19:07;94885.25;;;24.86;40.54
22389;BME280;11362;48.102;11.620;2023-06-10T03:21:33;94881.72;;;24.85;40.63
22389;BME280;11362;48.102;11.620;2023-06-10T03:23:58;94892.84;;;24.85;40.84
22389;BME280;11362;48.102;11.620;2023-06-10T03:26:23;94895.63;;;24.85;40.55
22389;BME280;11362;48.102;11.620;2023-06-10T03:28:48;94896.81;;;24.84;40.56
22389;BME280;11362;48.102;11.620;2023-06-10T03:31:14;94903.94;;;24.85;40.74
22389;BME280;11362;48.102;11.620;2023-06-10T03:33:39;94905.94;;;24.85;40.63
22389;BME280;11362;48.102;11.620;2023-06-10T03:36:05;94911.50;;;24.85;40.68
22389;BME280;11362;48.102;11.620;2023-06-10T03:38:30;94910.28;;;24.86;40.78
22389;BME280;11362;48.102;11.620;2023-06-10T03:40:55;94907.91;;;24.84;40.87
22389;BME280;11362;48.102;11.620;2023-06-10T03:43:20;94907.16;;;24.84;40.63
22389;BME280;11362;48.102;11.620;2023-06-10T03:45:46;94907.91;;;24.84;40.68
22389;BME280;11362;48.102;11.620;2023-06-10T03:48:11;94913.47;;;24.84;40.56
22389;BME280;11362;48.102;11.620;2023-06-10T03:50:36;94923.81;;;24.84;40.71
22389;BME280;11362;48.102;11.620;2023-06-10T03:53:02;94921.03;;;24.84;40.88
22389;BME280;11362;48.102;11.620;2023-06-10T03:55:27;94924.59;;;24.84;40.63
22389;BME280;11362;48.102;11.620;2023-06-10T03:57:52;94907.91;;;24.84;40.55
22389;BME280;11362;48.102;11.620;2023-06-10T04:00:18;94911.16;;;24.83;40.87
22389;BME280;11362;48.102;11.620;2023-06-10T04:02:44;94918.25;;;24.84;40.66
22389;BME280;11362;48.102;11.620;2023-06-10T04:05:09;94924.59;;;24.84;40.58
22389;BME280;11362;48.102;11.620;2023-06-10T04:07:34;94925.03;;;24.83;40.74
22389;BME280;11362;48.102;11.620;2023-06-10T04:09:59;94920.25;;;24.83;40.70
22389;BME280;11362;48.102;11.620;2023-06-10T04:12:25;94924.25;;;24.82;40.87
22389;BME280;11362;48.102;11.620;2023-06-10T04:14:50;94932.16;;;24.84;40.70
22389;BME280;11362;48.102;11.620;2023-06-10T04:17:15;94924.59;;;24.84;40.88
22389;BME280;11362;48.102;11.620;2023-06-10T04:19:40;94928.59;;;24.83;40.62
22389;BME280;11362;48.102;11.620;2023-06-10T04:22:06;94938.47;;;24.84;40.56
22389;BME280;11362;48.102;11.620;2023-06-10T04:24:31;94936.91;;;24.83;40.84
22389;BME280;11362;48.102;11.620;2023-06-10T04:26:56;94931.34;;;24.83;40.50
22389;BME280;11362;48.102;11.620;2023-06-10T04:29:22;94927.81;;;24.83;40.86
22389;BME280;11362;48.102;11.620;2023-06-10T04:31:47;94934.13;;;24.83;40.70
22389;BME280;11362;48.102;11.620;2023-06-10T04:34:12;94934.13;;;24.83;40.85
22389;BME280;11362;48.102;11.620;2023-06-10T04:36:38;94940.50;;;24.84;40.65
22389;BME280;11362;48.102;11.620;2023-06-10T04:39:03;94937.72;;;24.84;40.95
22389;BME280;11362;48.102;11.620;2023-06-10T04:41:28;94945.63;;;24.85;40.85
22389;BME280;11362;48.102;11.620;2023-06-10T04:43:54;94948.81;;;24.84;40.81
22389;BME280;11362;48.102;11.620;2023-06-10T04:46:19;94941.25;;;24.84;40.89
22389;BME280;11362;48.102;11.620;2023-06-10T04:48:44;94946.03;;;24.84;40.89
22389;BME280;11362;48.102;11.620;2023-06-10T04:51:09;94948.03;;;24.83;40.67
22389;BME280;11362;48.102;11.620;2023-06-10T04:53:35;94940.50;;;24.84;40.70
22389;BME280;11362;48.102;11.620;2023-06-10T04:56:00;94946.03;;;24.84;40.81
22389;BME280;11362;48.102;11.620;2023-06-10T04:58:25;94949.25;;;24.82;40.88
22389;BME280;11362;48.102;11.620;2023-06-10T05:00:51;94946.81;;;24.84;40.97
22389;BME280;11362;48.102;11.620;2023-06-10T05:03:16;94947.25;;;24.83;40.71
22389;BME280;11362;48.102;11.620;2023-06-10T05:05:41;94945.25;;;24.83;40.78
22389;BME280;11362;48.102;11.620;2023-06-10T05:08:06;94948.03;;;24.83;40.92
22389;BME280;11362;48.102;11.620;2023-06-10T05:10:32;94949.59;;;24.84;40.85
22389;BME280;11362;48.102;11.620;2023-06-10T05:12:58;94949.59;;;24.84;40.86
22389;BME280;11362;48.102;11.620;2023-06-10T05:15:23;94946.81;;;24.84;40.73
22389;BME280;11362;48.102;11.620;2023-06-10T05:17:48;94951.59;;;24.84;40.82
22389;BME280;11362;48.102;11.620;2023-06-10T05:20:13;94948.03;;;24.83;41.03
22389;BME280;11362;48.102;11.620;2023-06-10T05:22:39;94948.03;;;24.83;40.92
22389;BME280;11362;48.102;11.620;2023-06-10T05:25:04;94946.81;;;24.84;41.03
22389;BME280;11362;48.102;11.620;2023-06-10T05:27:30;94947.25;;;24.83;40.96
22389;BME280;11362;48.102;11.620;2023-06-10T05:29:55;94953.16;;;24.85;40.98
22389;BME280;11362;48.102;11.620;2023-06-10T05:32:20;94956.72;;;24.85;40.98
22389;BME280;11362;48.102;11.620;2023-06-10T05:34:46;94945.63;;;24.85;41.13
22389;BME280;11362;48.102;11.620;2023-06-10T05:37:12;94951.19;;;24.85;41.07
22389;BME280;11362;48.102;11.620;2023-06-10T05:39:38;94944.41;;;24.86;41.02
22389;BME280;11362;48.102;11.620;2023-06-10T05:42:05;94945.97;;;24.87;40.78
22389;BME280;11362;48.102;11.620;2023-06-10T05:44:30;94947.94;;;24.87;40.94
22389;BME280;11362;48.102;11.620;2023-06-10T05:46:55;94942.84;;;24.85;41.11
22389;BME280;11362;48.102;11.620;2023-06-10T05:49:21;94950.72;;;24.87;41.08
22389;BME280;11362;48.102;11.620;2023-06-10T05:51:46;94955.50;;;24.86;41.09
22389;BME280;11362;48.102;11.620;2023-06-10T05:54:11;94951.19;;;24.85;41.14
22389;BME280;11362;48.102;11.620;2023-06-10T05:56:36;94946.38;;;24.86;40.90
22389;BME280;11362;48.102;11.620;2023-06-10T05:59:02;94951.53;;;24.87;41.24
22389;BME280;11362;48.102;11.620;2023-06-10T06:01:27;94949.97;;;24.86;41.12
22389;BME280;11362;48.102;11.620;2023-06-10T06:03:52;94944.41;;;24.86;41.03
22389;BME280;11362;48.102;11.620;2023-06-10T06:06:18;94949.97;;;24.86;41.12
22389;BME280;11362;48.102;11.620;2023-06-10T06:08:43;94949.97;;;24.86;41.03
22389;BME280;11362;48.102;11.620;2023-06-10T06:11:09;94961.06;;;24.86;41.11
22389;BME280;11362;48.102;11.620;2023-06-10T06:13:34;94961.84;;;24.87;41.02
22389;BME280;11362;48.102;11.620;2023-06-10T06:15:59;94963.84;;;24.86;41.30
22389;BME280;11362;48.102;11.620;2023-06-10T06:18:24;94953.59;;;24.83;40.99
22389;BME280;11362;48.102;11.620;2023-06-10T06:20:50;94965.84;;;24.86;41.10
22389;BME280;11362;48.102;11.620;2023-06-10T06:23:15;94959.06;;;24.87;41.14
22389;BME280;11362;48.102;11.620;2023-06-10T06:25:40;94961.06;;;24.86;41.15
22389;BME280;11362;48.102;11.620;2023-06-10T06:28:06;94957.50;;;24.86;41.35
22389;BME280;11362;48.102;11.620;2023-06-10T06:30:32;94953.97;;;24.85;41.03
22389;BME280;11362;48.102;11.620;2023-06-10T06:32:57;94952.75;;;24.86;41.17
22389;BME280;11362;48.102;11.620;2023-06-10T06:35:22;94951.19;;;24.85;41.19
22389;BME280;11362;48.102;11.620;2023-06-10T06:37:47;94959.50;;;24.85;41.17
22389;BME280;11362;48.102;11.620;2023-06-10T06:40:13;94965.06;;;24.85;41.27
22389;BME280;11362;48.102;11.620;2023-06-10T06:42:38;94967.84;;;24.85;41.46
22389;BME280;11362;48.102;11.620;2023-06-10T06:45:04;94967.84;;;24.85;41.46
22389;BME280;11362;48.102;11.620;2023-06-10T06:47:29;94967.47;;;24.83;41.29
22389;BME280;11362;48.102;11.620;2023-06-10T06:49:54;94959.13;;;24.83;41.19
22389;BME280;11362;48.102;11.620;2023-06-10T06:52:19;94962.72;;;24.84;41.47
22389;BME280;11362;48.102;11.620;2023-06-10T06:54:45;94963.47;;;24.84;41.31
22389;BME280;11362;48.102;11.620;2023-06-10T06:57:10;94961.91;;;24.83;41.26
22389;BME280;11362;48.102;11.620;2023-06-10T06:59:35;94967.47;;;24.83;41.38
22389;BME280;11362;48.102;11.620;2023-06-10T07:02:02;94970.25;;;24.83;41.39
22389;BME280;11362;48.102;11.620;2023-06-10T07:04:27;94973.03;;;24.83;41.63
22389;BME280;11362;48.102;11.620;2023-06-10T07:06:53;94973.03;;;24.83;41.43
22389;BME280;11362;48.102;11.620;2023-06-10T07:09:18;94972.28;;;24.83;41.39
22389;BME280;11362;48.102;11.620;2023-06-10T07:11:43;94973.03;;;24.83;41.67
22389;BME280;11362;48.102;11.620;2023-06-10T07:14:08;94967.47;;;24.83;41.42
22389;BME280;11362;48.102;11.620;2023-06-10T07:16:34;94967.47;;;24.83;41.58
22389;BME280;11362;48.102;11.620;2023-06-10T07:18:59;94976.59;;;24.84;41.46
22389;BME280;11362;48.102;11.620;2023-06-10T07:21:24;94979.38;;;24.84;41.39
22389;BME280;11362;48.102;11.620;2023-06-10T07:23:50;94975.81;;;24.83;41.44
22389;BME280;11362;48.102;11.620;2023-06-10T07:26:15;94980.16;;;24.84;41.44
22389;BME280;11362;48.102;11.620;2023-06-10T07:28:41;94979.38;;;24.84;41.42
22389;BME280;11362;48.102;11.620;2023-06-10T07:31:07;94978.59;;;24.83;41.59
22389;BME280;11362;48.102;11.620;2023-06-10T07:33:32;94978.59;;;24.83;41.49
22389;BME280;11362;48.102;11.620;2023-06-10T07:35:57;94976.59;;;24.84;41.65
22389;BME280;11362;48.102;11.620;2023-06-10T07:38:24;94976.59;;;24.84;41.77
22389;BME280;11362;48.102;11.620;2023-06-10T07:40:50;94982.16;;;24.84;41.66
22389;BME280;11362;48.102;11.620;2023-06-10T07:43:15;94980.16;;;24.84;41.68
22389;BME280;11362;48.102;11.620;2023-06-10T07:45:41;94978.16;;;24.85;42.07
22389;BME280;11362;48.102;11.620;2023-06-10T07:48:06;94975.38;;;24.85;41.58
22389;BME280;11362;48.102;11.620;2023-06-10T07:50:32;94972.59;;;24.85;41.53
22389;BME280;11362;48.102;11.620;2023-06-10T07:52:57;94971.38;;;24.86;41.67
22389;BME280;11362;48.102;11.620;2023-06-10T07:55:22;94969.03;;;24.84;41.68
22389;BME280;11362;48.102;11.620;2023-06-10T07:57:47;94970.63;;;24.85;41.68
22389;BME280;11362;48.102;11.620;2023-06-10T08:00:13;94969.03;;;24.84;41.74
22389;BME280;11362;48.102;11.620;2023-06-10T08:02:39;94965.06;;;24.85;41.97
22389;BME280;11362;48.102;11.620;2023-06-10T08:05:04;94967.84;;;24.85;41.58
22389;BME280;11362;48.102;11.620;2023-06-10T08:07:29;94967.47;;;24.83;41.81
22389;BME280;11362;48.102;11.620;2023-06-10T08:09:55;94962.72;;;24.84;41.61
22389;BME280;11362;48.102;11.620;2023-06-10T08:12:20;94965.06;;;24.85;41.73
22389;BME280;11362;48.102;11.620;2023-06-10T08:14:45;94973.41;;;24.85;41.86
22389;BME280;11362;48.102;11.620;2023-06-10T08:17:11;94969.03;;;24.84;41.74
22389;BME280;11362;48.102;11.620;2023-06-10T08:19:36;94964.28;;;24.85;41.77
22389;BME280;11362;48.102;11.620;2023-06-10T08:22:01;94970.63;;;24.85;41.93
22389;BME280;11362;48.102;11.620;2023-06-10T08:24:26;94966.63;;;24.86;41.57
22389;BME280;11362;48.102;11.620;2023-06-10T08:26:52;94965.84;;;24.86;41.84
22389;BME280;11362;48.102;11.620;2023-06-10T08:29:17;94972.19;;;24.86;41.68
22389;BME280;11362;48.102;11.620;2023-06-10T08:31:43;94968.63;;;24.86;41.80
22389;BME280;11362;48.102;11.620;2023-06-10T08:34:09;94965.06;;;24.85;41.61
22389;BME280;11362;48.102;11.620;2023-06-10T08:36:34;94966.63;;;24.86;41.80
22389;BME280;11362;48.102;11.620;2023-06-10T08:38:59;94970.63;;;24.85;41.77
22389;BME280;11362;48.102;11.620;2023-06-10T08:41:25;94976.19;;;24.85;41.61
22389;BME280;11362;48.102;11.620;2023-06-10T08:43:59;94976.94;;;24.86;41.65
22389;BME280;11362;48.102;11.620;2023-06-10T08:46:29;94976.94;;;24.86;41.87
22389;BME280;11362;48.102;11.620;2023-06-10T08:49:02;94975.72;;;24.87;41.74
22389;BME280;11362;48.102;11.620;2023-06-10T08:51:28;94975.72;;;24.87;41.77
22389;BME280;11362;48.102;11.620;2023-06-10T08:54:10;94966.63;;;24.86;41.61
22389;BME280;11362;48.102;11.620;2023-06-10T08:56:39;94967.41;;;24.87;41.85
22389;BME280;11362;48.102;11.620;2023-06-10T08:59:05;94968.19;;;24.87;41.73
22389;BME280;11362;48.102;11.620;2023-06-10T09:01:30;94961.06;;;24.86;41.96
22389;BME280;11362;48.102;11.620;2023-06-10T09:03:57;94962.63;;;24.87;41.86
22389;BME280;11362;48.102;11.620;2023-06-10T09:06:25;94955.50;;;24.86;41.87
22389;BME280;11362;48.102;11.620;2023-06-10T09:08:50;94964.63;;;24.87;41.74
22389;BME280;11362;48.102;11.620;2023-06-10T09:11:15;94957.06;;;24.87;41.71
22389;BME280;11362;48.102;11.620;2023-06-10T09:13:41;94968.94;;;24.88;41.87
22389;BME280;11362;48.102;11.620;2023-06-10T09:16:06;94954.31;;;24.87;41.70
22389;BME280;11362;48.102;11.620;2023-06-10T09:18:32;94966.97;;;24.88;41.79
22389;BME280;11362;48.102;11.620;2023-06-10T09:20:57;94962.63;;;24.87;41.93
22389;BME280;11362;48.102;11.620;2023-06-10T09:23:22;94961.06;;;24.86;42.09
22389;BME280;11362;48.102;11.620;2023-06-10T09:25:56;94963.41;;;24.88;41.92
22389;BME280;11362;48.102;11.620;2023-06-10T09:28:21;94954.31;;;24.87;42.00
22389;BME280;11362;48.102;11.620;2023-06-10T09:30:46;94959.84;;;24.87;41.86
22389;BME280;11362;48.102;11.620;2023-06-10T09:33:13;94953.06;;;24.88;41.84
22389;BME280;11362;48.102;11.620;2023-06-10T09:35:47;94956.66;;;24.89;41.96
22389;BME280;11362;48.102;11.620;2023-06-10T09:38:15;94962.97;;;24.89;41.78
22389;BME280;11362;48.102;11.620;2023-06-10T09:40:51;94965.00;;;24.89;41.70
22389;BME280;11362;48.102;11.620;2023-06-10T09:43:17;94965.75;;;24.89;41.81
22389;BME280;11362;48.102;11.620;2023-06-10T09:45:43;94959.44;;;24.89;41.72
22389;BME280;11362;48.102;11.620;2023-06-10T09:48:08;94965.75;;;24.89;42.07
22389;BME280;11362;48.102;11.620;2023-06-10T09:50:34;94965.75;;;24.89;41.82
22389;BME280;11362;48.102;11.620;2023-06-10T09:52:59;94960.19;;;24.89;42.33
22389;BME280;11362;48.102;11.620;2023-06-10T09:55:24;94965.75;;;24.89;41.96
22389;BME280;11362;48.102;11.620;2023-06-10T09:57:53;94965.75;;;24.89;41.92
22389;BME280;11362;48.102;11.620;2023-06-10T10:00:19;94967.31;;;24.90;41.90
22389;BME280;11362;48.102;11.620;2023-06-10T10:02:52;94965.75;;;24.89;41.66
22389;BME280;11362;48.102;11.620;2023-06-10T10:05:20;94961.75;;;24.90;41.72
22389;BME280;11362;48.102;11.620;2023-06-10T10:07:46;94961.75;;;24.90;41.96
22389;BME280;11362;48.102;11.620;2023-06-10T10:10:13;94962.97;;;24.89;41.79
22389;BME280;11362;48.102;11.620;2023-06-10T10:12:40;94974.09;;;24.89;41.93
22389;BME280;11362;48.102;11.620;2023-06-10T10:15:07;94977.66;;;24.90;41.68
22389;BME280;11362;48.102;11.620;2023-06-10T10:17:34;94971.31;;;24.89;41.67
22389;BME280;11362;48.102;11.620;2023-06-10T10:20:04;94973.66;;;24.91;41.80
22389;BME280;11362;48.102;11.620;2023-06-10T10:22:39;94973.66;;;24.91;41.66
22389;BME280;11362;48.102;11.620;2023-06-10T10:25:11;94978.00;;;24.92;41.79
22389;BME280;11362;48.102;11.620;2023-06-10T10:27:43;94970.88;;;24.91;41.97
22389;BME280;11362;48.102;11.620;2023-06-10T10:30:10;94975.22;;;24.92;41.73
22389;BME280;11362;48.102;11.620;2023-06-10T10:32:47;94969.66;;;24.92;41.73
22389;BME280;11362;48.102;11.620;2023-06-10T10:35:21;94966.09;;;24.91;42.13
22389;BME280;11362;48.102;11.620;2023-06-10T10:37:46;94958.56;;;24.92;41.90
22389;BME280;11362;48.102;11.620;2023-06-10T10:40:12;94968.09;;;24.91;41.69
22389;BME280;11362;48.102;11.620;2023-06-10T10:42:38;94971.66;;;24.91;41.83
22389;BME280;11362;48.102;11.620;2023-06-10T10:45:04;94964.53;;;24.90;41.74
22389;BME280;11362;48.102;11.620;2023-06-10T10:47:30;94976.88;;;24.89;41.79
22389;BME280;11362;48.102;11.620;2023-06-10T10:49:56;94966.97;;;24.88;41.89
22389;BME280;11362;48.102;11.620;2023-06-10T10:52:21;94968.53;;;24.89;41.73
22389;BME280;11362;48.102;11.620;2023-06-10T10:54:47;94965.75;;;24.89;41.94
22389;BME280;11362;48.102;11.620;2023-06-10T10:57:16;94968.09;;;24.91;41.85
22389;BME280;11362;48.102;11.620;2023-06-10T10:59:52;94957.75;;;24.91;41.82
22389;BME280;11362;48.102;11.620;2023-06-10T11:02:18;94963.31;;;24.91;41.91
22389;BME280;11362;48.102;11.620;2023-06-10T11:04:56;94959.31;;;24.92;41.69
22389;BME280;11362;48.102;11.620;2023-06-10T11:07:24;94961.75;;;24.90;41.91
22389;BME280;11362;48.102;11.620;2023-06-10T11:12:54;94956.19;;;24.90;41.93
22389;BME280;11362;48.102;11.620;2023-06-10T11:15:23;94955.78;;;24.92;41.92
22389;BME280;11362;48.102;11.620;2023-06-10T11:18:08;94960.53;;;24.91;41.96
22389;BME280;11362;48.102;11.620;2023-06-10T11:20:45;94960.53;;;24.91;41.89
22389;BME280;11362;48.102;11.620;2023-06-10T11:26:21;94956.66;;;24.89;41.82
22389;BME280;11362;48.102;11.620;2023-06-10T11:33:47;94954.22;;;24.91;41.72
22389;BME280;11362;48.102;11.620;2023-06-10T11:36:12;94950.63;;;24.90;42.00
22389;BME280;11362;48.102;11.620;2023-06-10T11:38:38;94959.31;;;24.92;41.86
22389;BME280;11362;48.102;11.620;2023-06-10T11:41:03;94950.97;;;24.92;42.06
22389;BME280;11362;48.102;11.620;2023-06-10T11:43:29;94950.22;;;24.92;41.90
22389;BME280;11362;48.102;11.620;2023-06-10T11:45:55;94945.09;;;24.90;42.09
22389;BME280;11362;48.102;11.620;2023-06-10T11:48:20;94935.97;;;24.90;41.94
22389;BME280;11362;48.102;11.620;2023-06-10T11:50:45;94943.53;;;24.89;41.90
22389;BME280;11362;48.102;11.620;2023-06-10T11:53:11;94941.09;;;24.91;41.89
22389;BME280;11362;48.102;11.620;2023-06-10T11:55:44;94938.31;;;24.91;42.12
22389;BME280;11362;48.102;11.620;2023-06-10T11:58:20;94940.66;;;24.93;41.98
22389;BME280;11362;48.102;11.620;2023-06-10T12:00:51;94931.91;;;24.94;41.88
22389;BME280;11362;48.102;11.620;2023-06-10T12:03:17;94934.69;;;24.94;41.79
22389;BME280;11362;48.102;11.620;2023-06-10T12:06:05;94933.47;;;24.95;41.65
22389;BME280;11362;48.102;11.620;2023-06-10T12:08:31;94935.03;;;24.96;41.79
22389;BME280;11362;48.102;11.620;2023-06-10T12:10:57;94926.69;;;24.96;41.78
22389;BME280;11362;48.102;11.620;2023-06-10T12:13:23;94914.00;;;24.95;41.78
22389;BME280;11362;48.102;11.620;2023-06-10T12:15:49;94919.56;;;24.95;41.65
22389;BME280;11362;48.102;11.620;2023-06-10T12:18:18;94922.78;;;24.94;41.71
22389;BME280;11362;48.102;11.620;2023-06-10T12:20:43;94926.34;;;24.94;42.00
22389;BME280;11362;48.102;11.620;2023-06-10T12:23:09;94930.69;;;24.95;41.66
22389;BME280;11362;48.102;11.620;2023-06-10T12:25:35;94921.13;;;24.96;41.95
22389;BME280;11362;48.102;11.620;2023-06-10T12:28:00;94916.78;;;24.95;41.77
22389;BME280;11362;48.102;11.620;2023-06-10T12:30:26;94919.91;;;24.97;41.65
22389;BME280;11362;48.102;11.620;2023-06-10T12:32:52;94921.13;;;24.96;41.92
22389;BME280;11362;48.102;11.620;2023-06-10T12:35:19;94921.13;;;24.96;41.72
22389;BME280;11362;48.102;11.620;2023-06-10T12:38:02;94917.91;;;24.98;41.57
22389;BME280;11362;48.102;11.620;2023-06-10T12:40:31;94921.47;;;24.98;41.71
22389;BME280;11362;48.102;11.620;2023-06-10T12:42:58;94913.13;;;24.98;41.72
22389;BME280;11362;48.102;11.620;2023-06-10T12:45:30;94915.91;;;24.98;41.89
22389;BME280;11362;48.102;11.620;2023-06-10T12:48:11;94906.34;;;24.99;41.45
22389;BME280;11362;48.102;11.620;2023-06-10T12:50:39;94907.56;;;24.98;41.73
22389;BME280;11362;48.102;11.620;2023-06-10T12:53:05;94900.44;;;24.97;41.81
22389;BME280;11362;48.102;11.620;2023-06-10T12:55:31;94912.00;;;24.96;41.70
22389;BME280;11362;48.102;11.620;2023-06-10T12:57:56;94917.13;;;24.97;41.56
22389;BME280;11362;48.102;11.620;2023-06-10T13:00:22;94911.56;;;24.97;41.63
22389;BME280;11362;48.102;11.620;2023-06-10T13:02:48;94917.91;;;24.98;41.67